createdAt,value
2018-12-17T00:00:51.923Z,0.00
2018-12-17T00:01:51.891Z,0.00
2018-12-17T00:02:51.825Z,0.00
2018-12-17T00:03:51.799Z,0.00
2018-12-17T00:04:51.769Z,0.00
2018-12-17T00:05:51.731Z,0.00
2018-12-17T00:06:51.682Z,0.00
2018-12-17T00:07:51.617Z,0.00
2018-12-17T00:08:51.576Z,0.00
2018-12-17T00:09:51.521Z,0.00
2018-12-17T00:10:51.504Z,0.00
2018-12-17T00:11:51.439Z,0.00
2018-12-17T00:12:51.394Z,0.00
2018-12-17T00:13:51.394Z,0.00
2018-12-17T00:14:51.319Z,0.00
2018-12-17T00:15:51.261Z,0.00
2018-12-17T00:16:51.223Z,0.00
2018-12-17T00:17:51.211Z,0.00
2018-12-17T00:18:51.136Z,0.00
2018-12-17T00:19:51.080Z,0.00
2018-12-17T00:20:51.032Z,0.00
2018-12-17T00:21:51.016Z,0.00
2018-12-17T00:22:50.952Z,0.00
2018-12-17T00:23:50.887Z,0.00
2018-12-17T00:24:50.864Z,0.00
2018-12-17T00:25:50.823Z,0.00
2018-12-17T00:26:50.828Z,0.00
2018-12-17T00:27:50.720Z,0.00
2018-12-17T00:28:50.689Z,0.00
2018-12-17T00:29:50.635Z,0.00
2018-12-17T00:30:50.599Z,0.00
2018-12-17T00:31:50.544Z,0.00
2018-12-17T00:32:50.524Z,0.00
2018-12-17T00:33:50.464Z,0.00
2018-12-17T00:34:50.403Z,0.00
2018-12-17T00:35:50.381Z,0.00
2018-12-17T00:36:50.308Z,0.00
2018-12-17T00:37:50.302Z,0.00
2018-12-17T00:38:50.230Z,0.00
2018-12-17T00:39:50.181Z,0.00
2018-12-17T00:40:50.150Z,0.00
2018-12-17T00:41:50.142Z,0.00
2018-12-17T00:42:50.046Z,0.00
2018-12-17T00:43:50.018Z,0.00
2018-12-17T00:44:49.975Z,0.00
2018-12-17T00:45:49.948Z,0.00
2018-12-17T00:46:49.888Z,0.00
2018-12-17T00:47:49.852Z,0.00
2018-12-17T00:48:49.821Z,0.00
2018-12-17T00:49:49.784Z,0.00
2018-12-17T00:50:49.723Z,0.00
2018-12-17T00:51:49.665Z,0.00
2018-12-17T00:52:49.600Z,0.00
2018-12-17T00:53:49.593Z,0.00
2018-12-17T00:54:49.512Z,0.00
2018-12-17T00:55:49.486Z,0.00
2018-12-17T00:56:49.422Z,0.00
2018-12-17T00:57:49.381Z,0.00
2018-12-17T00:58:49.352Z,0.00
2018-12-17T00:59:49.295Z,0.00
2018-12-17T01:00:49.247Z,0.00
2018-12-17T01:01:49.255Z,0.00
2018-12-17T01:02:49.195Z,0.00
2018-12-17T01:03:49.132Z,0.00
2018-12-17T01:04:49.116Z,0.00
2018-12-17T01:05:49.029Z,0.00
2018-12-17T01:06:49.036Z,0.00
2018-12-17T01:07:48.987Z,0.00
2018-12-17T01:08:48.904Z,0.00
2018-12-17T01:09:48.853Z,0.00
2018-12-17T01:10:48.843Z,0.00
2018-12-17T01:11:48.762Z,0.00
2018-12-17T01:12:48.751Z,0.00
2018-12-17T01:13:48.696Z,0.00
2018-12-17T01:14:48.638Z,0.00
2018-12-17T01:15:48.599Z,0.00
2018-12-17T01:16:48.551Z,0.00
2018-12-17T01:17:48.506Z,0.00
2018-12-17T01:18:48.463Z,0.00
2018-12-17T01:19:48.439Z,0.00
2018-12-17T01:20:48.355Z,0.00
2018-12-17T01:21:48.374Z,0.00
2018-12-17T01:22:48.320Z,0.00
2018-12-17T01:23:48.267Z,0.00
2018-12-17T01:24:48.194Z,0.00
2018-12-17T01:25:48.149Z,0.00
2018-12-17T01:26:48.112Z,0.00
2018-12-17T01:27:48.059Z,0.00
2018-12-17T01:28:48.007Z,0.00
2018-12-17T01:29:47.993Z,0.00
2018-12-17T01:30:47.923Z,0.00
2018-12-17T01:31:47.878Z,0.00
2018-12-17T01:32:47.846Z,0.00
2018-12-17T01:33:47.817Z,0.00
2018-12-17T01:34:47.736Z,0.00
2018-12-17T01:35:47.742Z,0.00
2018-12-17T01:36:47.648Z,0.00
2018-12-17T01:37:47.618Z,0.00
2018-12-17T01:38:47.561Z,0.00
2018-12-17T01:39:47.528Z,0.00
2018-12-17T01:40:47.477Z,0.00
2018-12-17T01:41:47.470Z,0.00
2018-12-17T01:42:47.394Z,0.00
2018-12-17T01:43:47.355Z,0.00
2018-12-17T01:44:47.317Z,0.00
2018-12-17T01:45:47.261Z,0.00
2018-12-17T01:46:47.201Z,0.00
2018-12-17T01:47:47.192Z,0.00
2018-12-17T01:48:47.158Z,0.00
2018-12-17T01:49:47.076Z,0.00
2018-12-17T01:50:47.033Z,0.00
2018-12-17T01:51:46.984Z,0.00
2018-12-17T01:52:46.951Z,0.00
2018-12-17T01:53:46.923Z,0.00
2018-12-17T01:54:46.858Z,0.00
2018-12-17T01:55:46.813Z,0.00
2018-12-17T01:56:46.793Z,0.00
2018-12-17T01:57:46.726Z,0.00
2018-12-17T01:58:46.702Z,0.00
2018-12-17T01:59:46.642Z,0.00
2018-12-17T02:00:46.583Z,0.00
2018-12-17T02:01:46.544Z,0.00
2018-12-17T02:02:46.491Z,0.00
2018-12-17T02:03:46.504Z,0.00
2018-12-17T02:04:46.428Z,0.00
2018-12-17T02:05:46.372Z,0.00
2018-12-17T02:06:46.315Z,0.00
2018-12-17T02:07:46.299Z,0.00
2018-12-17T02:08:46.262Z,0.00
2018-12-17T02:09:46.168Z,0.00
2018-12-17T02:10:46.160Z,0.00
2018-12-17T02:11:46.098Z,0.00
2018-12-17T02:12:46.039Z,0.00
2018-12-17T02:13:46.011Z,0.00
2018-12-17T02:14:45.977Z,0.00
2018-12-17T02:15:45.922Z,0.00
2018-12-17T02:16:45.898Z,0.00
2018-12-17T02:17:46.503Z,0.00
2018-12-17T02:18:45.937Z,0.00
2018-12-17T02:19:46.504Z,0.00
2018-12-17T02:20:45.849Z,0.00
2018-12-17T02:21:45.669Z,0.00
2018-12-17T02:22:45.658Z,0.00
2018-12-17T02:23:45.553Z,0.00
2018-12-17T02:24:45.521Z,0.00
2018-12-17T02:25:45.461Z,0.00
2018-12-17T02:26:45.434Z,0.00
2018-12-17T02:27:45.423Z,0.00
2018-12-17T02:28:45.378Z,0.00
2018-12-17T02:29:45.291Z,0.00
2018-12-17T02:30:45.259Z,0.00
2018-12-17T02:31:45.198Z,0.00
2018-12-17T02:32:45.401Z,0.00
2018-12-17T02:33:45.094Z,0.00
2018-12-17T02:34:45.066Z,0.00
2018-12-17T02:35:45.015Z,0.00
2018-12-17T02:36:45.001Z,0.00
2018-12-17T02:37:44.917Z,0.00
2018-12-17T02:38:44.911Z,0.00
2018-12-17T02:39:44.841Z,0.00
2018-12-17T02:40:44.803Z,0.00
2018-12-17T02:41:44.769Z,0.00
2018-12-17T02:42:44.796Z,0.00
2018-12-17T02:43:44.658Z,0.00
2018-12-17T02:44:44.663Z,0.00
2018-12-17T02:45:44.569Z,0.00
2018-12-17T02:46:44.519Z,0.00
2018-12-17T02:47:44.477Z,0.00
2018-12-17T02:48:44.427Z,0.00
2018-12-17T02:49:44.371Z,0.00
2018-12-17T02:50:44.384Z,0.00
2018-12-17T02:51:44.317Z,0.00
2018-12-17T02:52:45.010Z,0.00
2018-12-17T02:53:44.194Z,0.00
2018-12-17T02:54:44.204Z,0.00
2018-12-17T02:55:44.124Z,0.00
2018-12-17T02:56:44.112Z,0.00
2018-12-17T02:57:44.109Z,0.00
2018-12-17T02:58:44.298Z,0.00
2018-12-17T02:59:43.928Z,0.00
2018-12-17T03:00:43.936Z,0.00
2018-12-17T03:01:43.874Z,0.00
2018-12-17T03:02:43.829Z,0.00
2018-12-17T03:03:43.768Z,0.00
2018-12-17T03:04:43.747Z,0.00
2018-12-17T03:05:43.656Z,0.00
2018-12-17T03:06:43.631Z,0.00
2018-12-17T03:07:43.570Z,0.00
2018-12-17T03:08:43.537Z,0.00
2018-12-17T03:09:43.501Z,0.00
2018-12-17T03:10:43.430Z,0.00
2018-12-17T03:11:43.385Z,0.00
2018-12-17T03:12:43.397Z,0.00
2018-12-17T03:13:44.013Z,0.00
2018-12-17T03:14:43.288Z,0.00
2018-12-17T03:15:43.312Z,0.00
2018-12-17T03:16:43.177Z,0.00
2018-12-17T03:17:43.220Z,0.00
2018-12-17T03:18:43.261Z,0.00
2018-12-17T03:19:43.086Z,0.00
2018-12-17T03:20:43.025Z,0.00
2018-12-17T03:21:43.033Z,0.00
2018-12-17T03:22:42.892Z,0.00
2018-12-17T03:23:43.011Z,0.00
2018-12-17T03:24:42.845Z,0.00
2018-12-17T03:25:42.806Z,0.00
2018-12-17T03:26:42.740Z,0.00
2018-12-17T03:27:42.694Z,0.00
2018-12-17T03:28:42.638Z,0.00
2018-12-17T03:29:42.651Z,0.00
2018-12-17T03:30:42.547Z,0.00
2018-12-17T03:31:42.610Z,0.00
2018-12-17T03:32:42.519Z,0.00
2018-12-17T03:33:42.456Z,0.00
2018-12-17T03:34:42.372Z,0.00
2018-12-17T03:35:43.012Z,0.00
2018-12-17T03:36:42.276Z,0.00
2018-12-17T03:37:42.279Z,0.00
2018-12-17T03:38:42.219Z,0.00
2018-12-17T03:39:42.318Z,0.00
2018-12-17T03:40:42.112Z,0.00
2018-12-17T03:41:42.065Z,0.00
2018-12-17T03:42:42.090Z,0.00
2018-12-17T03:43:41.980Z,0.00
2018-12-17T03:44:41.938Z,0.00
2018-12-17T03:45:41.910Z,0.00
2018-12-17T03:46:41.835Z,0.00
2018-12-17T03:47:41.752Z,0.00
2018-12-17T03:48:41.745Z,0.00
2018-12-17T03:49:41.711Z,0.00
2018-12-17T03:50:41.645Z,0.00
2018-12-17T03:51:41.625Z,0.00
2018-12-17T03:52:41.572Z,0.00
2018-12-17T03:53:41.490Z,0.00
2018-12-17T03:54:41.478Z,0.00
2018-12-17T03:55:41.517Z,0.00
2018-12-17T03:56:41.383Z,0.00
2018-12-17T03:57:41.377Z,0.00
2018-12-17T03:58:41.267Z,0.00
2018-12-17T03:59:41.234Z,0.00
2018-12-17T04:00:41.198Z,0.00
2018-12-17T04:01:41.208Z,0.00
2018-12-17T04:02:41.077Z,0.00
2018-12-17T04:03:41.105Z,0.00
2018-12-17T04:04:40.996Z,0.00
2018-12-17T04:05:40.999Z,0.00
2018-12-17T04:06:40.920Z,0.00
2018-12-17T04:07:40.907Z,0.00
2018-12-17T04:08:40.904Z,0.00
2018-12-17T04:09:40.796Z,0.00
2018-12-17T04:10:40.728Z,0.00
2018-12-17T04:11:40.690Z,0.00
2018-12-17T04:12:40.641Z,0.00
2018-12-17T04:13:40.598Z,0.00
2018-12-17T04:14:40.534Z,0.00
2018-12-17T04:15:40.523Z,0.00
2018-12-17T04:16:40.487Z,0.00
2018-12-17T04:17:40.430Z,0.00
2018-12-17T04:18:40.445Z,0.00
2018-12-17T04:19:40.359Z,0.00
2018-12-17T04:20:40.284Z,0.00
2018-12-17T04:21:40.257Z,0.00
2018-12-17T04:22:40.267Z,0.00
2018-12-17T04:23:40.158Z,0.00
2018-12-17T04:24:40.112Z,0.00
2018-12-17T04:25:40.107Z,0.00
2018-12-17T04:26:40.078Z,0.00
2018-12-17T04:27:39.975Z,0.00
2018-12-17T04:28:39.937Z,0.00
2018-12-17T04:29:39.883Z,0.00
2018-12-17T04:30:39.850Z,0.00
2018-12-17T04:31:39.798Z,0.00
2018-12-17T04:32:39.795Z,0.00
2018-12-17T04:33:39.739Z,0.00
2018-12-17T04:34:39.641Z,0.00
2018-12-17T04:35:39.597Z,0.00
2018-12-17T04:36:39.605Z,0.00
2018-12-17T04:37:39.561Z,0.00
2018-12-17T04:38:39.475Z,0.00
2018-12-17T04:39:39.430Z,0.00
2018-12-17T04:40:39.386Z,0.00
2018-12-17T04:41:39.354Z,0.00
2018-12-17T04:42:39.299Z,0.00
2018-12-17T04:43:39.253Z,0.00
2018-12-17T04:44:39.199Z,0.00
2018-12-17T04:45:39.189Z,0.00
2018-12-17T04:46:39.132Z,0.00
2018-12-17T04:47:39.052Z,0.00
2018-12-17T04:48:39.043Z,0.00
2018-12-17T04:49:38.970Z,0.00
2018-12-17T04:50:38.986Z,0.00
2018-12-17T04:51:38.890Z,0.00
2018-12-17T04:52:38.884Z,0.00
2018-12-17T04:53:38.873Z,0.00
2018-12-17T04:54:38.763Z,0.00
2018-12-17T04:55:38.715Z,0.00
2018-12-17T04:56:38.690Z,0.00
2018-12-17T04:57:38.660Z,0.00
2018-12-17T04:58:38.570Z,0.00
2018-12-17T04:59:38.524Z,0.00
2018-12-17T05:00:38.478Z,0.00
2018-12-17T05:01:38.477Z,0.00
2018-12-17T05:02:38.422Z,0.00
2018-12-17T05:03:38.368Z,0.00
2018-12-17T05:04:38.306Z,0.00
2018-12-17T05:05:38.285Z,0.00
2018-12-17T05:06:38.244Z,0.00
2018-12-17T05:07:38.171Z,0.00
2018-12-17T05:08:38.131Z,0.00
2018-12-17T05:09:38.095Z,0.00
2018-12-17T05:10:38.055Z,0.00
2018-12-17T05:11:38.018Z,0.00
2018-12-17T05:12:37.996Z,0.00
2018-12-17T05:13:37.910Z,0.00
2018-12-17T05:14:37.870Z,0.00
2018-12-17T05:15:37.797Z,0.00
2018-12-17T05:16:37.753Z,0.00
2018-12-17T05:17:37.736Z,0.00
2018-12-17T05:18:37.701Z,0.00
2018-12-17T05:19:37.646Z,0.00
2018-12-17T05:20:37.575Z,0.00
2018-12-17T05:21:37.539Z,0.00
2018-12-17T05:22:37.487Z,0.00
2018-12-17T05:23:37.429Z,0.00
2018-12-17T05:24:37.399Z,0.00
2018-12-17T05:25:37.366Z,0.00
2018-12-17T05:26:37.303Z,0.00
2018-12-17T05:27:37.254Z,0.00
2018-12-17T05:28:37.208Z,0.00
2018-12-17T05:29:37.184Z,0.00
2018-12-17T05:30:37.107Z,0.00
2018-12-17T05:31:37.065Z,0.00
2018-12-17T05:32:37.040Z,0.00
2018-12-17T05:33:37.010Z,0.00
2018-12-17T05:34:36.925Z,0.00
2018-12-17T05:35:36.885Z,0.00
2018-12-17T05:36:36.844Z,0.00
2018-12-17T05:37:36.799Z,0.00
2018-12-17T05:38:36.767Z,0.00
2018-12-17T05:39:36.703Z,0.00
2018-12-17T05:40:36.654Z,0.00
2018-12-17T05:41:36.614Z,0.00
2018-12-17T05:42:36.566Z,0.00
2018-12-17T05:43:36.576Z,0.00
2018-12-17T05:44:36.480Z,0.00
2018-12-17T05:45:36.437Z,0.00
2018-12-17T05:46:36.398Z,0.00
2018-12-17T05:47:36.386Z,0.00
2018-12-17T05:48:36.307Z,0.00
2018-12-17T05:49:36.264Z,0.00
2018-12-17T05:50:36.213Z,0.00
2018-12-17T05:51:36.160Z,0.00
2018-12-17T05:52:36.107Z,0.00
2018-12-17T05:53:36.082Z,0.00
2018-12-17T05:54:44.426Z,0.00
2018-12-17T05:56:29.391Z,0.00
2018-12-17T05:57:29.710Z,0.00
2018-12-17T05:59:28.358Z,0.00
2018-12-17T06:00:22.153Z,0.00
2018-12-17T06:02:15.147Z,0.00
2018-12-17T06:03:15.411Z,0.00
2018-12-17T06:05:08.328Z,0.00
2018-12-17T06:06:08.390Z,0.00
2018-12-17T06:08:01.078Z,0.00
2018-12-17T06:09:01.259Z,0.00
2018-12-17T06:10:54.169Z,0.00
2018-12-17T06:11:54.158Z,0.00
2018-12-17T06:13:47.012Z,0.00
2018-12-17T06:14:47.496Z,0.00
2018-12-17T06:16:41.636Z,0.00
2018-12-17T06:17:42.107Z,0.00
2018-12-17T06:19:34.625Z,0.00
2018-12-17T06:20:34.486Z,0.00
2018-12-17T06:22:27.597Z,0.00
2018-12-17T06:23:27.215Z,0.00
2018-12-17T06:25:20.448Z,0.00
2018-12-17T06:26:20.367Z,0.00
2018-12-17T06:28:15.239Z,0.00
2018-12-17T06:29:14.907Z,0.00
2018-12-17T06:30:15.339Z,0.00
2018-12-17T06:31:14.477Z,0.00
2018-12-17T06:32:14.439Z,4.00
2018-12-17T06:33:15.793Z,4.00
2018-12-17T06:34:14.356Z,4.00
2018-12-17T06:35:14.279Z,4.00
2018-12-17T06:36:14.233Z,0.00
2018-12-17T06:37:14.183Z,4.00
2018-12-17T06:38:14.198Z,4.00
2018-12-17T06:39:14.819Z,8.00
2018-12-17T06:40:14.053Z,4.00
2018-12-17T06:41:14.021Z,8.00
2018-12-17T06:42:14.841Z,8.00
2018-12-17T06:43:13.912Z,12.00
2018-12-17T06:44:13.877Z,12.00
2018-12-17T06:45:13.806Z,16.00
2018-12-17T06:46:13.779Z,16.00
2018-12-17T06:47:13.746Z,16.00
2018-12-17T06:48:17.139Z,20.00
2018-12-17T06:49:13.653Z,28.00
2018-12-17T06:50:13.580Z,32.00
2018-12-17T06:51:13.545Z,40.00
2018-12-17T06:52:13.525Z,44.00
2018-12-17T06:53:13.454Z,52.00
2018-12-17T06:54:13.404Z,60.00
2018-12-17T06:55:13.396Z,68.00
2018-12-17T06:56:13.305Z,80.00
2018-12-17T06:57:13.258Z,88.00
2018-12-17T06:58:13.206Z,100.00
2018-12-17T06:59:13.194Z,112.00
2018-12-17T07:00:13.138Z,128.00
2018-12-17T07:01:13.076Z,144.00
2018-12-17T07:02:13.030Z,160.00
2018-12-17T07:03:12.980Z,184.00
2018-12-17T07:04:12.934Z,204.00
2018-12-17T07:05:12.907Z,224.00
2018-12-17T07:06:12.842Z,248.00
2018-12-17T07:07:12.958Z,276.00
2018-12-17T07:08:12.783Z,308.00
2018-12-17T07:09:12.741Z,332.00
2018-12-17T07:10:12.681Z,364.00
2018-12-17T07:11:12.614Z,392.00
2018-12-17T07:12:12.563Z,428.00
2018-12-17T07:13:12.567Z,468.00
2018-12-17T07:14:12.494Z,504.00
2018-12-17T07:15:12.488Z,544.00
2018-12-17T07:16:12.440Z,580.00
2018-12-17T07:17:12.387Z,608.00
2018-12-17T07:18:12.319Z,636.00
2018-12-17T07:19:12.289Z,660.00
2018-12-17T07:20:12.209Z,692.00
2018-12-17T07:21:12.848Z,720.00
2018-12-17T07:22:12.152Z,752.00
2018-12-17T07:23:12.118Z,792.00
2018-12-17T07:24:12.069Z,828.00
2018-12-17T07:25:11.978Z,868.00
2018-12-17T07:26:11.965Z,916.00
2018-12-17T07:27:11.907Z,972.00
2018-12-17T07:28:11.848Z,1036.00
2018-12-17T07:29:11.812Z,1108.00
2018-12-17T07:30:11.759Z,1180.00
2018-12-17T07:31:11.771Z,1260.00
2018-12-17T07:32:11.695Z,1352.00
2018-12-17T07:33:11.669Z,1460.00
2018-12-17T07:34:11.675Z,1584.00
2018-12-17T07:35:11.536Z,1712.00
2018-12-17T07:36:11.490Z,1840.00
2018-12-17T07:37:11.453Z,1964.00
2018-12-17T07:38:11.411Z,2076.00
2018-12-17T07:39:11.352Z,2212.00
2018-12-17T07:40:11.308Z,2380.00
2018-12-17T07:41:11.269Z,2528.00
2018-12-17T07:42:11.232Z,2620.00
2018-12-17T07:43:11.188Z,2692.00
2018-12-17T07:44:11.133Z,2776.00
2018-12-17T07:45:11.120Z,2908.00
2018-12-17T07:46:11.038Z,3088.00
2018-12-17T07:47:11.007Z,3244.00
2018-12-17T07:48:10.947Z,3352.00
2018-12-17T07:49:10.932Z,3448.00
2018-12-17T07:50:10.845Z,3612.00
2018-12-17T07:51:10.808Z,3964.00
2018-12-17T07:52:10.759Z,4396.00
2018-12-17T07:53:10.710Z,4688.00
2018-12-17T07:54:10.681Z,4880.00
2018-12-17T07:55:10.620Z,5044.00
2018-12-17T07:56:10.588Z,5260.00
2018-12-17T07:57:10.562Z,5476.00
2018-12-17T07:58:10.534Z,5704.00
2018-12-17T07:59:10.456Z,5936.00
2018-12-17T08:00:10.409Z,6160.00
2018-12-17T08:01:10.357Z,6364.00
2018-12-17T08:02:10.318Z,6584.00
2018-12-17T08:03:10.293Z,6804.00
2018-12-17T08:04:10.241Z,7036.00
2018-12-17T08:05:10.179Z,7200.00
2018-12-17T08:06:10.167Z,7312.00
2018-12-17T08:07:10.085Z,7472.00
2018-12-17T08:08:10.064Z,7612.00
2018-12-17T08:09:10.009Z,7680.00
2018-12-17T08:10:09.984Z,7620.00
2018-12-17T08:11:09.919Z,7488.00
2018-12-17T08:12:09.865Z,7360.00
2018-12-17T08:13:09.841Z,7188.00
2018-12-17T08:14:09.766Z,7024.00
2018-12-17T08:15:09.763Z,6912.00
2018-12-17T08:16:09.723Z,6680.00
2018-12-17T08:17:09.629Z,6352.00
2018-12-17T08:18:09.623Z,6008.00
2018-12-17T08:19:09.541Z,5712.00
2018-12-17T08:20:09.515Z,5528.00
2018-12-17T08:21:09.476Z,5432.00
2018-12-17T08:22:09.467Z,5408.00
2018-12-17T08:23:09.394Z,5420.00
2018-12-17T08:24:09.344Z,5492.00
2018-12-17T08:25:09.769Z,5624.00
2018-12-17T08:26:09.236Z,5748.00
2018-12-17T08:27:09.186Z,5864.00
2018-12-17T08:28:09.174Z,6016.00
2018-12-17T08:29:09.110Z,6192.00
2018-12-17T08:30:09.079Z,6300.00
2018-12-17T08:31:09.054Z,6408.00
2018-12-17T08:32:08.997Z,6496.00
2018-12-17T08:33:08.930Z,6532.00
2018-12-17T08:34:08.896Z,6564.00
2018-12-17T08:35:08.842Z,6584.00
2018-12-17T08:36:08.795Z,6584.00
2018-12-17T08:37:08.773Z,6552.00
2018-12-17T08:38:08.711Z,6496.00
2018-12-17T08:39:08.692Z,6416.00
2018-12-17T08:40:08.618Z,6344.00
2018-12-17T08:41:08.648Z,6308.00
2018-12-17T08:42:08.527Z,6280.00
2018-12-17T08:43:08.497Z,6224.00
2018-12-17T08:44:08.450Z,6188.00
2018-12-17T08:45:08.416Z,6176.00
2018-12-17T08:46:08.363Z,6232.00
2018-12-17T08:47:08.324Z,6368.00
2018-12-17T08:48:08.293Z,6564.00
2018-12-17T08:49:08.234Z,6724.00
2018-12-17T08:50:08.183Z,6912.00
2018-12-17T08:51:08.143Z,7144.00
2018-12-17T08:52:08.115Z,7348.00
2018-12-17T08:53:08.068Z,7504.00
2018-12-17T08:54:08.029Z,7608.00
2018-12-17T08:55:07.970Z,7632.00
2018-12-17T08:56:07.927Z,7568.00
2018-12-17T08:57:07.896Z,7472.00
2018-12-17T08:58:07.868Z,7324.00
2018-12-17T08:59:07.780Z,7032.00
2018-12-17T09:00:11.008Z,6660.00
2018-12-17T09:01:07.711Z,6404.00
2018-12-17T09:02:07.658Z,6356.00
2018-12-17T09:03:07.639Z,6548.00
2018-12-17T09:04:07.588Z,6880.00
2018-12-17T09:05:07.561Z,7296.00
2018-12-17T09:06:07.506Z,7704.00
2018-12-17T09:07:07.501Z,8116.00
2018-12-17T09:08:07.415Z,8488.00
2018-12-17T09:09:07.355Z,8772.00
2018-12-17T09:19:19.808Z,14628.00
2018-12-17T09:20:19.402Z,15300.00
2018-12-17T09:21:19.654Z,15864.00
2018-12-17T09:22:19.183Z,16864.00
2018-12-17T09:23:19.183Z,18048.00
2018-12-17T09:24:20.072Z,19232.00
2018-12-17T09:25:19.061Z,19744.00
2018-12-17T09:26:19.065Z,19616.00
2018-12-17T09:27:19.010Z,19136.00
2018-12-17T09:28:18.953Z,18272.00
2018-12-17T09:29:18.897Z,17664.00
2018-12-17T09:30:18.849Z,16744.00
2018-12-17T09:31:18.820Z,16016.00
2018-12-17T09:32:18.773Z,15480.00
2018-12-17T09:33:18.743Z,15408.00
2018-12-17T09:34:18.685Z,15380.00
2018-12-17T09:35:18.664Z,15448.00
2018-12-17T09:36:18.618Z,15700.00
2018-12-17T09:37:18.643Z,15820.00
2018-12-17T09:38:18.495Z,15728.00
2018-12-17T09:39:18.453Z,15376.00
2018-12-17T09:40:18.417Z,15240.00
2018-12-17T09:41:18.372Z,15384.00
2018-12-17T09:42:18.369Z,15452.00
2018-12-17T09:43:18.306Z,15476.00
2018-12-17T09:44:18.250Z,15944.00
2018-12-17T09:45:18.211Z,17056.00
2018-12-17T09:46:18.165Z,17856.00
2018-12-17T09:47:18.124Z,18176.00
2018-12-17T09:48:18.080Z,18176.00
2018-12-17T09:49:18.061Z,17824.00
2018-12-17T09:50:17.991Z,17184.00
2018-12-17T09:51:19.649Z,16532.00
2018-12-17T09:52:17.904Z,15940.00
2018-12-17T09:53:17.887Z,14788.00
2018-12-17T09:54:17.851Z,13988.00
2018-12-17T09:55:17.915Z,13896.00
2018-12-17T09:56:17.744Z,14300.00
2018-12-17T09:57:17.738Z,14508.00
2018-12-17T09:58:17.689Z,14604.00
2018-12-17T09:59:17.646Z,14792.00
2018-12-17T10:00:17.609Z,15112.00
2018-12-17T10:01:17.558Z,15704.00
2018-12-17T10:02:17.511Z,16424.00
2018-12-17T10:03:17.485Z,17048.00
2018-12-17T10:04:17.411Z,17344.00
2018-12-17T10:05:17.380Z,17176.00
2018-12-17T10:06:17.329Z,17536.00
2018-12-17T10:07:17.285Z,17536.00
2018-12-17T10:08:17.268Z,17664.00
2018-12-17T10:09:17.214Z,19552.00
2018-12-17T10:10:17.237Z,18624.00
2018-12-17T10:11:17.127Z,18784.00
2018-12-17T10:12:17.083Z,19008.00
2018-12-17T10:13:17.042Z,19648.00
2018-12-17T10:14:17.003Z,20448.00
2018-12-17T10:15:16.993Z,18880.00
2018-12-17T10:16:16.916Z,21024.00
2018-12-17T10:17:16.919Z,21568.00
2018-12-17T10:18:16.867Z,21248.00
2018-12-17T10:19:16.807Z,22112.00
2018-12-17T10:20:16.785Z,22624.00
2018-12-17T10:21:16.720Z,24224.00
2018-12-17T10:22:16.664Z,27168.00
2018-12-17T10:23:16.629Z,23712.00
2018-12-17T10:24:16.606Z,26112.00
2018-12-17T10:25:16.569Z,25280.00
2018-12-17T10:26:16.513Z,25184.00
2018-12-17T10:27:16.548Z,22400.00
2018-12-17T10:28:16.460Z,20864.00
2018-12-17T10:29:16.421Z,21920.00
2018-12-17T10:30:16.359Z,22592.00
2018-12-17T10:31:16.451Z,22432.00
2018-12-17T10:32:16.281Z,21760.00
2018-12-17T10:33:16.253Z,20960.00
2018-12-17T10:34:16.231Z,21184.00
2018-12-17T10:35:16.171Z,21664.00
2018-12-17T10:36:16.141Z,21312.00
2018-12-17T10:37:16.093Z,20000.00
2018-12-17T10:38:16.050Z,19872.00
2018-12-17T10:39:16.149Z,19808.00
2018-12-17T10:40:15.979Z,19680.00
2018-12-17T10:41:15.996Z,19392.00
2018-12-17T10:42:15.890Z,20960.00
2018-12-17T10:43:15.847Z,23232.00
2018-12-17T10:44:15.821Z,23552.00
2018-12-17T10:45:15.804Z,21920.00
2018-12-17T10:46:15.724Z,18656.00
2018-12-17T10:47:15.716Z,18176.00
2018-12-17T10:48:15.656Z,19008.00
2018-12-17T10:49:15.609Z,18528.00
2018-12-17T10:50:15.578Z,17368.00
2018-12-17T10:51:15.568Z,17588.00
2018-12-17T10:52:15.509Z,18080.00
2018-12-17T10:53:15.463Z,18240.00
2018-12-17T10:54:15.423Z,17380.00
2018-12-17T10:55:15.371Z,17028.00
2018-12-17T10:56:15.350Z,17380.00
2018-12-17T10:57:15.301Z,18144.00
2018-12-17T10:58:15.369Z,18048.00
2018-12-17T10:59:15.247Z,18080.00
2018-12-17T11:00:15.184Z,18912.00
2018-12-17T11:01:15.142Z,18880.00
2018-12-17T11:02:15.127Z,19360.00
2018-12-17T11:03:15.064Z,20000.00
2018-12-17T11:04:15.032Z,19616.00
2018-12-17T11:05:14.979Z,19360.00
2018-12-17T11:06:14.952Z,20128.00
2018-12-17T11:07:14.959Z,20192.00
2018-12-17T11:08:14.862Z,20096.00
2018-12-17T11:09:14.810Z,19424.00
2018-12-17T11:10:14.799Z,19328.00
2018-12-17T11:11:14.752Z,19616.00
2018-12-17T11:12:14.747Z,19488.00
2018-12-17T11:13:14.711Z,20224.00
2018-12-17T11:14:14.700Z,20352.00
2018-12-17T11:15:14.622Z,20224.00
2018-12-17T11:16:14.550Z,20192.00
2018-12-17T11:17:14.496Z,20512.00
2018-12-17T11:18:14.458Z,19936.00
2018-12-17T11:19:14.409Z,18784.00
2018-12-17T11:20:14.375Z,18336.00
2018-12-17T11:21:14.352Z,18240.00
2018-12-17T11:22:14.304Z,17888.00
2018-12-17T11:23:14.261Z,17728.00
2018-12-17T11:24:14.206Z,17408.00
2018-12-17T11:25:14.261Z,17084.00
2018-12-17T11:26:14.134Z,17172.00
2018-12-17T11:27:14.092Z,17372.00
2018-12-17T11:28:14.038Z,17280.00
2018-12-17T11:29:14.058Z,16212.00
2018-12-17T11:30:13.997Z,15456.00
2018-12-17T11:31:13.929Z,16648.00
2018-12-17T11:32:13.978Z,17568.00
2018-12-17T11:33:13.847Z,17856.00
2018-12-17T11:34:13.830Z,16236.00
2018-12-17T11:35:13.778Z,15112.00
2018-12-17T11:36:13.721Z,15260.00
2018-12-17T11:37:13.689Z,16888.00
2018-12-17T11:38:13.640Z,16464.00
2018-12-17T11:39:13.652Z,16560.00
2018-12-17T11:40:13.571Z,15568.00
2018-12-17T11:41:13.538Z,15272.00
2018-12-17T11:42:13.522Z,14692.00
2018-12-17T11:43:13.458Z,14564.00
2018-12-17T11:44:13.410Z,13676.00
2018-12-17T11:45:13.371Z,13636.00
2018-12-17T11:46:13.329Z,14248.00
2018-12-17T11:47:13.293Z,15868.00
2018-12-17T11:48:13.233Z,16664.00
2018-12-17T11:49:13.210Z,14800.00
2018-12-17T11:50:13.162Z,21344.00
2018-12-17T11:51:13.158Z,15272.00
2018-12-17T11:52:13.104Z,13580.00
2018-12-17T11:53:13.051Z,12864.00
2018-12-17T11:54:13.005Z,12752.00
2018-12-17T11:55:12.965Z,13144.00
2018-12-17T11:56:12.928Z,13324.00
2018-12-17T11:57:12.945Z,12944.00
2018-12-17T11:58:12.926Z,12088.00
2018-12-17T11:59:12.793Z,11700.00
2018-12-17T12:00:12.758Z,12160.00
2018-12-17T12:01:12.726Z,12184.00
2018-12-17T12:02:12.677Z,11748.00
2018-12-17T12:03:12.658Z,11660.00
2018-12-17T12:04:13.385Z,11780.00
2018-12-17T12:05:12.556Z,11548.00
2018-12-17T12:06:14.194Z,12160.00
2018-12-17T12:07:12.473Z,12320.00
2018-12-17T12:08:12.415Z,12448.00
2018-12-17T12:09:12.407Z,13180.00
2018-12-17T12:10:12.349Z,14116.00
2018-12-17T12:11:12.306Z,14752.00
2018-12-17T12:12:12.271Z,14904.00
2018-12-17T12:13:12.223Z,18976.00
2018-12-17T12:14:12.179Z,20512.00
2018-12-17T12:15:12.161Z,19104.00
2018-12-17T12:16:12.097Z,18656.00
2018-12-17T12:17:12.075Z,17472.00
2018-12-17T12:18:12.016Z,15640.00
2018-12-17T12:19:12.001Z,14348.00
2018-12-17T12:20:11.941Z,13240.00
2018-12-17T12:21:11.914Z,12588.00
2018-12-17T12:22:11.894Z,12424.00
2018-12-17T12:23:11.839Z,12200.00
2018-12-17T12:24:11.785Z,12200.00
2018-12-17T12:25:11.734Z,12300.00
2018-12-17T12:26:11.705Z,12468.00
2018-12-17T12:27:11.650Z,13008.00
2018-12-17T12:28:11.645Z,13648.00
2018-12-17T12:29:11.571Z,14576.00
2018-12-17T12:30:11.519Z,14844.00
2018-12-17T12:31:11.511Z,16036.00
2018-12-17T12:32:11.451Z,18080.00
2018-12-17T12:33:11.422Z,17856.00
2018-12-17T12:34:11.361Z,17368.00
2018-12-17T12:35:11.330Z,16292.00
2018-12-17T12:36:11.310Z,16024.00
2018-12-17T12:37:11.246Z,16056.00
2018-12-17T12:38:11.212Z,16076.00
2018-12-17T12:39:11.165Z,15804.00
2018-12-17T12:40:11.122Z,15168.00
2018-12-17T12:41:11.075Z,14452.00
2018-12-17T12:42:11.070Z,14472.00
2018-12-17T12:43:10.999Z,14832.00
2018-12-17T12:44:10.962Z,13264.00
2018-12-17T12:45:10.919Z,11708.00
2018-12-17T12:46:10.889Z,11192.00
2018-12-17T12:47:10.865Z,11060.00
2018-12-17T12:48:10.795Z,10424.00
2018-12-17T12:49:10.769Z,9628.00
2018-12-17T12:50:10.709Z,9144.00
2018-12-17T12:51:10.675Z,9248.00
2018-12-17T12:52:10.640Z,9120.00
2018-12-17T12:53:10.599Z,8880.00
2018-12-17T12:54:10.548Z,8308.00
2018-12-17T12:55:10.514Z,8092.00
2018-12-17T12:56:10.473Z,9408.00